Tuesday, January 15, 2019, 7:05 PM EST
Back to Local

KMQE, Milton Blue Hill Observ

Location: Milton, MA, United States Lat: 42.217
Local Time: 7:05 PM EST ( 0:05 GMT) Lon: -71.117
Time Zone: US/Eastern Elev: 629 ft

Show me the last for .
Show Decoded

2019-01-15 17:56 METAR KMQE 152256Z AUTO 32007KT M03/M08 A3004 RMK AO1 SLP192 T10281078 =
2019-01-15 16:56 METAR KMQE 152156Z AUTO 32008KT M01/M08 A3002 RMK AO1 SLP186 T10111078 =
2019-01-15 15:56 METAR KMQE 152056Z AUTO 31006KT 00/M07 A3002 RMK AO1 SLP183 T00001072 51004 =
2019-01-15 14:56 METAR KMQE 151956Z AUTO 31006KT 01/M07 A3001 RMK AO1 SLP182 T00061072 =
2019-01-15 13:56 METAR KMQE 151856Z AUTO 30007KT 01/M08 A3001 RMK AO1 SLP180 T00111078 =
2019-01-15 12:56 METAR KMQE 151756Z AUTO 32010G15KT M01/M09 A3000 RMK AO1 SLP179 T10061089 11006
                 21078 58016 =
2019-01-15 11:56 METAR KMQE 151656Z AUTO 32010KT M01/M09 A3002 RMK AO1 SLP186 T10111094 =
2019-01-15 10:56 METAR KMQE 151556Z AUTO 31008G16KT M02/M11 A3005 RMK AO1 SLP194 T10221106 =
2019-01-15 09:56 METAR KMQE 151456Z AUTO 32009G17KT M05/M12 A3005 RMK AO1 SLP198 T10501122 53016
                 =
2019-01-15 08:56 METAR KMQE 151356Z AUTO 31008KT M07/M13 A3004 RMK AO1 SLP194 T10671128 =
2019-01-15 07:56 METAR KMQE 151256Z AUTO 32008KT M07/M13 A3002 RMK AO1 SLP185 T10721133 =
2019-01-15 06:56 METAR KMQE 151156Z AUTO 32009KT M08/M14 A3001 RMK AO1 SLP182 T10781139 11067
                 21078 53008 =
2019-01-15 05:56 METAR KMQE 151056Z AUTO 32011KT M07/M14 A2999 RMK AO1 SLP177 T10721139 =
2019-01-15 04:56 METAR KMQE 150956Z AUTO 32011KT M07/M13 A2999 RMK AO1 SLP175 T10721133 =
2019-01-15 03:56 METAR KMQE 150856Z AUTO 32012KT M07/M13 A2998 RMK AO1 SLP172 T10671128 58007 =
2019-01-15 02:56 METAR KMQE 150756Z AUTO 32011KT M07/M12 A2999 RMK AO1 SLP176 T10671117 =
2019-01-15 01:56 METAR KMQE 150656Z AUTO 32009KT M07/M13 A3000 RMK AO1 SLP177 T10671128 =
2019-01-15 00:56 METAR KMQE 150556Z AUTO 32011KT M07/M12 A3000 RMK AO1 SLP179 T10671117 11056
                 21067 56013 =
2019-01-14 23:56 METAR KMQE 150456Z AUTO 32009KT M06/M11 A3001 RMK AO1 SLP183 T10611111 410281072
                 =
2019-01-14 22:56 METAR KMQE 150356Z AUTO 32009KT M06/M11 A3003 RMK AO1 SLP189 T10611106 =
2019-01-14 21:56 METAR KMQE 150256Z AUTO 32008KT M06/M09 A3004 RMK AO1 SLP194 T10611094 56007 =
2019-01-14 20:56 METAR KMQE 150156Z AUTO 31005KT M06/M09 A3005 RMK AO1 SLP195 T10561094 =
2019-01-14 19:56 METAR KMQE 150056Z AUTO 32005KT M06/M09 A3005 RMK AO1 SLP196 T10561094 =

Support USWX by starting your Amazon purchase here.